createdAt,value
2022-10-06T00:01:05.179Z,85.41
2022-10-06T00:03:48.846Z,85.41
2022-10-06T00:06:21.583Z,85.44
2022-10-06T00:08:54.033Z,85.56
2022-10-06T00:11:26.381Z,85.74
2022-10-06T00:13:58.767Z,85.78
2022-10-06T00:16:30.919Z,85.98
2022-10-06T00:19:03.165Z,85.89
2022-10-06T00:21:35.476Z,86.01
2022-10-06T00:24:08.254Z,86.16
2022-10-06T00:26:42.597Z,86.21
2022-10-06T00:29:14.916Z,86.39
2022-10-06T00:31:47.116Z,86.22
2022-10-06T00:34:19.568Z,86.23
2022-10-06T00:36:52.064Z,86.19
2022-10-06T00:39:24.685Z,86.46
2022-10-06T00:41:56.992Z,86.27
2022-10-06T00:44:29.402Z,86.45
2022-10-06T00:47:03.353Z,86.49
2022-10-06T00:49:39.823Z,86.48
2022-10-06T00:52:18.236Z,86.49
2022-10-06T00:54:50.985Z,86.62
2022-10-06T00:57:23.936Z,86.65
2022-10-06T00:59:57.296Z,86.72
2022-10-06T01:02:35.634Z,86.68
2022-10-06T01:05:11.064Z,86.75
2022-10-06T01:07:43.490Z,86.87
2022-10-06T01:10:15.933Z,86.89
2022-10-06T01:12:52.228Z,86.88
2022-10-06T01:15:26.163Z,87.13
2022-10-06T01:18:03.348Z,86.94
2022-10-06T01:20:38.572Z,87.36
2022-10-06T01:23:12.310Z,87.32
2022-10-06T01:25:47.345Z,87.00
2022-10-06T01:28:21.430Z,87.21
2022-10-06T01:31:01.811Z,87.27
2022-10-06T01:33:35.802Z,87.27
2022-10-06T01:36:09.214Z,87.49
2022-10-06T01:38:41.816Z,87.50
2022-10-06T01:41:16.711Z,87.76
2022-10-06T01:43:49.015Z,87.67
2022-10-06T01:46:23.886Z,87.69
2022-10-06T01:48:56.238Z,87.97
2022-10-06T01:51:29.402Z,87.90
2022-10-06T01:54:01.666Z,88.00
2022-10-06T01:56:34.132Z,87.88
2022-10-06T01:59:07.092Z,87.94
2022-10-06T02:01:41.423Z,88.20
2022-10-06T02:04:13.573Z,88.35
2022-10-06T02:06:47.630Z,88.52
2022-10-06T02:09:19.817Z,88.50
2022-10-06T02:11:52.158Z,88.43
2022-10-06T02:14:24.804Z,88.59
2022-10-06T02:16:56.902Z,88.58
2022-10-06T02:19:29.477Z,88.62
2022-10-06T02:22:04.069Z,88.92
2022-10-06T02:24:36.393Z,88.86
2022-10-06T02:27:11.536Z,88.85
2022-10-06T02:29:44.903Z,89.07
2022-10-06T02:32:20.971Z,89.19
2022-10-06T02:34:57.175Z,89.20
2022-10-06T02:37:29.609Z,89.08
2022-10-06T02:40:06.144Z,89.29
2022-10-06T02:42:40.172Z,89.18
2022-10-06T02:45:13.535Z,89.52
2022-10-06T02:47:46.571Z,89.60
2022-10-06T02:50:19.406Z,89.68
2022-10-06T02:52:51.736Z,89.55
2022-10-06T02:55:26.284Z,89.77
2022-10-06T02:57:58.466Z,89.89
2022-10-06T03:00:30.984Z,89.82
2022-10-06T03:03:03.639Z,89.93
2022-10-06T03:05:36.063Z,90.06
2022-10-06T03:08:11.589Z,90.26
2022-10-06T03:10:43.775Z,90.21
2022-10-06T03:13:16.116Z,90.29
2022-10-06T03:15:48.472Z,90.40
2022-10-06T03:18:21.274Z,90.56
2022-10-06T03:20:54.159Z,90.69
2022-10-06T03:23:26.798Z,90.71
2022-10-06T03:26:02.079Z,91.01
2022-10-06T03:28:35.895Z,90.97
2022-10-06T03:31:09.087Z,91.17
2022-10-06T03:33:41.870Z,91.03
2022-10-06T03:36:19.159Z,91.17
2022-10-06T03:38:52.145Z,91.58
2022-10-06T03:41:28.129Z,91.18
2022-10-06T03:44:01.584Z,91.34
2022-10-06T03:46:38.315Z,91.43
2022-10-06T03:49:12.105Z,91.55
2022-10-06T03:51:49.398Z,91.80
2022-10-06T03:54:24.394Z,91.78
2022-10-06T03:56:58.233Z,91.82
2022-10-06T03:59:34.414Z,92.00
2022-10-06T04:02:11.453Z,91.78
2022-10-06T04:04:43.838Z,92.02
2022-10-06T04:07:19.535Z,92.11
2022-10-06T04:09:52.243Z,92.00
2022-10-06T04:12:24.921Z,91.90
2022-10-06T04:15:00.289Z,92.12
2022-10-06T04:17:33.599Z,92.38
2022-10-06T04:20:09.939Z,92.23
2022-10-06T04:22:42.193Z,92.43
2022-10-06T04:25:14.615Z,92.36
2022-10-06T04:27:47.068Z,92.45
2022-10-06T04:30:21.094Z,92.47
2022-10-06T04:32:53.708Z,92.56
2022-10-06T04:35:27.528Z,92.67
2022-10-06T04:38:00.830Z,92.59
2022-10-06T04:40:33.470Z,92.67
2022-10-06T04:43:06.024Z,92.83
2022-10-06T04:45:38.848Z,92.64
2022-10-06T04:48:11.204Z,92.74
2022-10-06T04:50:44.840Z,92.79
2022-10-06T04:53:19.719Z,92.81
2022-10-06T04:56:01.209Z,93.06
2022-10-06T04:58:36.595Z,93.07
2022-10-06T05:01:17.115Z,93.08
2022-10-06T05:03:51.197Z,93.17
2022-10-06T05:06:25.817Z,92.98
2022-10-06T05:09:00.317Z,93.12
2022-10-06T05:11:34.469Z,93.17
2022-10-06T05:14:09.328Z,93.20
2022-10-06T05:16:44.852Z,93.14
2022-10-06T05:19:18.211Z,93.47
2022-10-06T05:21:50.476Z,93.33
2022-10-06T05:24:26.777Z,93.45
2022-10-06T05:27:02.176Z,93.61
2022-10-06T05:29:35.456Z,93.51
2022-10-06T05:32:10.229Z,93.60
2022-10-06T05:34:44.452Z,93.74
2022-10-06T05:37:16.622Z,93.81
2022-10-06T05:39:48.896Z,93.81
2022-10-06T05:42:26.196Z,93.95
2022-10-06T05:45:01.335Z,93.76
2022-10-06T05:47:33.957Z,94.06
2022-10-06T05:50:07.869Z,94.06
2022-10-06T05:52:40.614Z,94.33
2022-10-06T05:55:13.409Z,94.18
2022-10-06T05:57:45.723Z,94.05
2022-10-06T06:00:22.396Z,94.20
2022-10-06T06:02:55.080Z,94.29
2022-10-06T06:05:27.243Z,94.05
2022-10-06T06:07:59.546Z,94.46
2022-10-06T06:10:32.217Z,94.61
2022-10-06T06:13:04.336Z,94.29
2022-10-06T06:16:04.456Z,95.41
2022-10-06T06:18:39.352Z,97.44
2022-10-06T06:21:15.917Z,95.04
2022-10-06T06:23:51.367Z,92.30
2022-10-06T06:26:25.322Z,91.62
2022-10-06T06:29:04.154Z,91.33
2022-10-06T06:31:40.358Z,91.25
2022-10-06T06:34:13.080Z,91.00
2022-10-06T06:36:54.585Z,91.48
2022-10-06T06:39:27.950Z,90.98
2022-10-06T06:42:02.293Z,91.00
2022-10-06T06:44:46.744Z,90.83
2022-10-06T06:57:59.455Z,95.54
2022-10-06T07:04:58.359Z,87.57
2022-10-06T07:08:21.395Z,85.76
2022-10-06T07:10:55.642Z,86.17
2022-10-06T07:13:57.794Z,86.93
2022-10-06T07:29:24.384Z,82.31
2022-10-06T07:32:57.031Z,84.76
2022-10-06T07:40:19.703Z,80.12
2022-10-06T07:42:58.348Z,78.82
2022-10-06T07:50:50.641Z,75.36
2022-10-06T07:58:24.339Z,70.69
2022-10-06T08:25:08.248Z,56.66
2022-10-06T08:27:44.677Z,56.27
2022-10-06T08:39:03.598Z,56.20
2022-10-06T08:42:18.640Z,54.50
2022-10-06T08:49:22.038Z,48.94
2022-10-06T08:56:48.831Z,44.20
2022-10-06T08:59:22.539Z,42.01
2022-10-06T09:11:25.935Z,34.22
2022-10-06T09:15:07.977Z,33.00
2022-10-06T09:31:33.038Z,30.91
2022-10-06T09:42:50.168Z,34.19
2022-10-06T09:49:32.506Z,36.01
2022-10-06T09:52:11.828Z,36.62
2022-10-06T09:59:07.354Z,39.05
2022-10-06T10:01:41.710Z,39.76
2022-10-06T10:09:38.527Z,41.57
2022-10-06T10:16:43.761Z,43.23
2022-10-06T10:24:27.265Z,44.82
2022-10-06T10:31:59.163Z,46.57
2022-10-06T10:48:30.612Z,50.46
2022-10-06T10:55:30.912Z,52.01
2022-10-06T10:58:14.897Z,52.32
2022-10-06T11:00:51.525Z,52.88
2022-10-06T11:03:23.700Z,53.23
2022-10-06T11:06:15.847Z,53.44
2022-10-06T11:08:57.301Z,53.88
2022-10-06T11:11:51.322Z,54.24
2022-10-06T11:15:13.732Z,54.94
2022-10-06T11:18:26.226Z,55.67
2022-10-06T11:21:04.085Z,56.01
2022-10-06T11:23:48.768Z,56.35
2022-10-06T11:26:32.646Z,56.88
2022-10-06T11:29:19.114Z,57.16
2022-10-06T11:32:02.126Z,57.63
2022-10-06T11:34:34.460Z,57.90
2022-10-06T11:37:17.812Z,58.50
2022-10-06T11:39:56.645Z,58.72
2022-10-06T11:42:37.729Z,59.12
2022-10-06T11:45:16.475Z,59.40
2022-10-06T11:48:11.036Z,59.85
2022-10-06T11:50:45.285Z,60.11
2022-10-06T11:53:39.388Z,60.41
2022-10-06T11:59:24.533Z,61.08
2022-10-06T12:02:03.553Z,61.48
2022-10-06T12:04:36.114Z,61.89
2022-10-06T12:07:11.053Z,61.83
2022-10-06T12:10:15.577Z,61.89
2022-10-06T12:13:06.565Z,62.36
2022-10-06T12:19:27.142Z,62.92
2022-10-06T12:22:11.232Z,63.16
2022-10-06T12:24:47.716Z,63.74
2022-10-06T12:27:33.514Z,63.90
2022-10-06T12:30:19.460Z,64.12
2022-10-06T12:32:57.435Z,64.68
2022-10-06T12:35:34.783Z,64.94
2022-10-06T12:38:07.844Z,65.14
2022-10-06T12:40:51.342Z,65.63
2022-10-06T12:43:59.828Z,65.95
2022-10-06T12:46:49.465Z,66.24
2022-10-06T12:49:49.913Z,66.73
2022-10-06T12:52:46.201Z,67.00
2022-10-06T12:55:49.252Z,67.08
2022-10-06T12:58:28.606Z,67.38
2022-10-06T13:01:05.862Z,67.52
2022-10-06T13:03:38.925Z,67.37
2022-10-06T13:06:11.938Z,67.52
2022-10-06T13:08:44.126Z,67.52
2022-10-06T13:11:23.354Z,67.50
2022-10-06T13:13:59.836Z,68.12
2022-10-06T13:16:39.402Z,68.31
2022-10-06T13:19:19.687Z,68.70
2022-10-06T13:21:53.153Z,68.68
2022-10-06T13:24:28.718Z,68.45
2022-10-06T13:27:02.971Z,68.55
2022-10-06T13:29:35.641Z,68.85
2022-10-06T13:32:19.430Z,69.04
2022-10-06T13:34:51.652Z,68.66
2022-10-06T13:37:23.836Z,69.15
2022-10-06T13:39:56.103Z,69.32
2022-10-06T13:42:29.106Z,69.58
2022-10-06T13:45:06.980Z,69.73
2022-10-06T13:47:40.381Z,69.54
2022-10-06T13:50:20.198Z,69.68
2022-10-06T13:52:52.418Z,70.09
2022-10-06T13:55:26.528Z,70.36
2022-10-06T13:58:13.859Z,70.40
2022-10-06T14:00:56.436Z,70.76
2022-10-06T14:06:19.080Z,71.49
2022-10-06T14:08:55.132Z,71.59
2022-10-06T14:11:32.301Z,71.51
2022-10-06T14:14:07.806Z,71.65
2022-10-06T14:22:34.353Z,72.01
2022-10-06T14:29:25.258Z,72.14
2022-10-06T14:31:57.321Z,72.25
2022-10-06T14:38:17.927Z,72.63
2022-10-06T14:46:04.043Z,72.96
2022-10-06T14:49:27.748Z,72.83
2022-10-06T14:52:00.243Z,72.91
2022-10-06T14:54:47.552Z,73.08
2022-10-06T15:10:19.984Z,73.73
2022-10-06T15:12:58.700Z,73.65
2022-10-06T15:15:34.170Z,73.88
2022-10-06T15:18:57.154Z,73.73
2022-10-06T15:30:15.584Z,74.15
2022-10-06T15:32:55.633Z,74.08
2022-10-06T15:35:27.714Z,73.96
2022-10-06T15:38:06.702Z,74.09
2022-10-06T15:40:38.885Z,74.33
2022-10-06T15:48:09.451Z,74.47
2022-10-06T15:50:42.148Z,74.73
2022-10-06T15:53:23.582Z,74.99
2022-10-06T15:56:44.536Z,75.34
2022-10-06T15:59:24.516Z,75.09
2022-10-06T16:01:58.417Z,75.24
2022-10-06T16:05:02.252Z,75.13
2022-10-06T16:16:11.801Z,75.57
2022-10-06T16:18:44.000Z,75.82
2022-10-06T16:21:33.366Z,75.80
2022-10-06T16:24:11.938Z,75.91
2022-10-06T16:26:44.357Z,75.91
2022-10-06T16:29:17.037Z,76.08
2022-10-06T16:32:28.572Z,75.85
2022-10-06T16:39:42.790Z,76.06
2022-10-06T16:46:47.346Z,76.13
2022-10-06T16:49:19.960Z,76.05
2022-10-06T16:51:59.064Z,76.05
2022-10-06T16:54:43.630Z,76.07
2022-10-06T16:57:15.807Z,76.33
2022-10-06T17:08:18.876Z,76.63
2022-10-06T17:11:47.845Z,76.93
2022-10-06T17:18:55.771Z,76.95
2022-10-06T17:21:44.931Z,76.96
2022-10-06T17:25:12.926Z,77.02
2022-10-06T17:27:45.051Z,76.80
2022-10-06T17:30:17.369Z,76.86
2022-10-06T17:32:57.058Z,77.04
2022-10-06T17:35:46.788Z,77.20
2022-10-06T17:47:30.882Z,77.63
2022-10-06T17:54:07.550Z,77.68
2022-10-06T18:01:36.722Z,78.13
2022-10-06T18:13:53.195Z,78.53
2022-10-06T18:21:15.656Z,78.70
2022-10-06T18:23:55.148Z,78.32
2022-10-06T18:26:29.935Z,78.46
2022-10-06T18:29:04.485Z,78.48
2022-10-06T18:49:36.564Z,78.71
2022-10-06T18:56:41.651Z,78.94
2022-10-06T18:59:16.461Z,78.96
2022-10-06T19:02:38.901Z,78.98
2022-10-06T19:05:12.058Z,79.04
2022-10-06T19:07:44.710Z,79.05
2022-10-06T19:10:17.911Z,78.86
2022-10-06T19:12:49.887Z,78.89
2022-10-06T19:15:21.965Z,79.02
2022-10-06T19:17:53.976Z,79.09
2022-10-06T19:20:26.412Z,79.28
2022-10-06T19:22:58.749Z,79.34
2022-10-06T19:25:33.370Z,79.03
2022-10-06T19:28:05.901Z,78.79
2022-10-06T19:30:38.053Z,79.05
2022-10-06T19:33:10.312Z,79.07
2022-10-06T19:35:51.313Z,78.89
2022-10-06T19:38:23.463Z,79.26
2022-10-06T19:41:15.845Z,79.04
2022-10-06T19:43:47.878Z,79.46
2022-10-06T19:46:20.150Z,79.39
2022-10-06T19:48:58.614Z,79.55
2022-10-06T19:51:30.674Z,79.45
2022-10-06T19:54:03.736Z,79.45
2022-10-06T19:56:35.912Z,79.75
2022-10-06T19:59:09.107Z,79.70
2022-10-06T20:01:42.338Z,79.51
2022-10-06T20:05:00.036Z,79.61
2022-10-06T20:07:32.099Z,79.74
2022-10-06T20:10:04.419Z,79.67
2022-10-06T20:13:23.528Z,79.54
2022-10-06T20:15:55.645Z,79.72
2022-10-06T20:18:29.957Z,79.72
2022-10-06T20:21:02.003Z,79.87
2022-10-06T20:24:18.496Z,79.75
2022-10-06T20:26:52.359Z,79.74
2022-10-06T20:29:26.478Z,79.92
2022-10-06T20:31:59.718Z,79.99
2022-10-06T20:34:32.916Z,79.93
2022-10-06T20:37:06.706Z,79.95
2022-10-06T20:39:56.734Z,80.15
2022-10-06T20:43:04.332Z,79.94
2022-10-06T20:46:08.787Z,80.11
2022-10-06T20:48:40.835Z,80.27
2022-10-06T20:51:16.231Z,80.29
2022-10-06T20:53:48.605Z,80.28
2022-10-06T20:56:21.372Z,80.17
2022-10-06T20:58:53.631Z,80.29
2022-10-06T21:01:25.946Z,80.30
2022-10-06T21:03:57.932Z,80.48
2022-10-06T21:06:30.335Z,80.25
2022-10-06T21:09:03.834Z,80.39
2022-10-06T21:11:36.234Z,80.49
2022-10-06T21:14:12.709Z,80.73
2022-10-06T21:16:46.537Z,80.79
2022-10-06T21:19:20.067Z,80.58
2022-10-06T21:21:55.903Z,80.72
2022-10-06T21:24:27.918Z,80.83
2022-10-06T21:27:00.422Z,80.89
2022-10-06T21:29:32.450Z,80.75
2022-10-06T21:32:05.272Z,80.71
2022-10-06T21:34:37.456Z,80.78
2022-10-06T21:37:10.261Z,80.89
2022-10-06T21:39:45.581Z,81.07
2022-10-06T21:42:19.401Z,80.95
2022-10-06T21:44:51.751Z,80.79
2022-10-06T21:47:23.811Z,80.97
2022-10-06T21:49:55.977Z,80.93
2022-10-06T21:52:28.044Z,81.03
2022-10-06T21:55:00.228Z,81.00
2022-10-06T21:57:32.405Z,80.84
2022-10-06T22:00:05.153Z,81.04
2022-10-06T22:02:45.080Z,80.89
2022-10-06T22:05:17.518Z,81.00
2022-10-06T22:07:49.556Z,81.27
2022-10-06T22:10:21.503Z,81.00
2022-10-06T22:12:54.558Z,80.82
2022-10-06T22:15:26.540Z,80.95
2022-10-06T22:17:58.744Z,81.04
2022-10-06T22:20:32.137Z,81.16
2022-10-06T22:23:05.125Z,81.29
2022-10-06T22:25:37.536Z,81.14
2022-10-06T22:28:10.491Z,81.07
2022-10-06T22:30:42.571Z,81.36
2022-10-06T22:33:14.658Z,81.16
2022-10-06T22:35:53.205Z,80.95
2022-10-06T22:38:25.776Z,81.17
2022-10-06T22:41:01.940Z,81.29
2022-10-06T22:43:34.430Z,81.33
2022-10-06T22:46:08.046Z,81.41
2022-10-06T22:48:40.693Z,81.27
2022-10-06T22:51:12.850Z,81.45
2022-10-06T22:53:45.358Z,81.33
2022-10-06T22:56:17.786Z,81.38
2022-10-06T22:58:49.998Z,81.46
2022-10-06T23:01:22.305Z,81.25
2022-10-06T23:03:56.248Z,81.11
2022-10-06T23:06:29.846Z,81.27
2022-10-06T23:09:03.566Z,81.49
2022-10-06T23:11:35.591Z,81.33
2022-10-06T23:14:07.583Z,81.53
2022-10-06T23:16:39.813Z,81.28
2022-10-06T23:19:13.219Z,81.36
2022-10-06T23:21:45.246Z,81.53
2022-10-06T23:24:17.328Z,81.60
2022-10-06T23:26:49.472Z,81.66
2022-10-06T23:29:21.606Z,81.45
2022-10-06T23:31:53.910Z,81.65
2022-10-06T23:34:26.065Z,81.52
2022-10-06T23:36:58.015Z,81.42
2022-10-06T23:39:30.064Z,81.80
2022-10-06T23:42:02.269Z,81.63
2022-10-06T23:44:34.469Z,81.78
2022-10-06T23:47:06.836Z,81.46
2022-10-06T23:49:41.431Z,81.64
2022-10-06T23:52:16.572Z,81.50
2022-10-06T23:54:49.687Z,81.73
2022-10-06T23:57:22.086Z,81.79
2022-10-06T23:59:54.199Z,81.76
